createdAt,value
2023-05-21T00:02:10.041Z,5.57
2023-05-21T00:04:40.607Z,6.57
2023-05-21T00:07:08.665Z,6.22
2023-05-21T00:09:38.268Z,6.32
2023-05-21T00:12:07.013Z,6.07
2023-05-21T00:14:34.945Z,6.22
2023-05-21T00:17:04.149Z,5.32
2023-05-21T00:19:33.716Z,4.68
2023-05-21T00:22:04.422Z,6.25
2023-05-21T00:24:32.160Z,6.10
2023-05-21T00:27:00.995Z,6.72
2023-05-21T00:29:30.044Z,5.70
2023-05-21T00:31:57.833Z,5.85
2023-05-21T00:34:29.580Z,4.95
2023-05-21T00:36:57.342Z,5.88
2023-05-21T00:39:25.297Z,6.20
2023-05-21T00:41:53.003Z,5.68
2023-05-21T00:44:22.246Z,5.72
2023-05-21T00:46:53.591Z,5.78
2023-05-21T00:49:24.522Z,5.95
2023-05-21T00:51:54.854Z,6.05
2023-05-21T00:54:29.369Z,6.72
2023-05-21T00:56:58.084Z,5.80
2023-05-21T00:59:26.261Z,6.18
2023-05-21T01:01:56.110Z,5.45
2023-05-21T01:04:25.005Z,5.28
2023-05-21T01:06:56.160Z,5.38
2023-05-21T01:09:24.652Z,5.07
2023-05-21T01:11:55.234Z,5.68
2023-05-21T01:14:25.107Z,5.72
2023-05-21T01:16:53.764Z,4.97
2023-05-21T01:19:23.708Z,5.82
2023-05-21T01:21:57.881Z,5.80
2023-05-21T01:24:27.317Z,5.47
2023-05-21T01:26:55.055Z,6.03
2023-05-21T01:29:22.948Z,5.43
2023-05-21T01:32:00.436Z,5.72
2023-05-21T01:34:33.742Z,5.72
2023-05-21T01:37:09.499Z,4.85
2023-05-21T01:39:40.849Z,5.82
2023-05-21T01:42:11.471Z,5.40
2023-05-21T01:44:40.832Z,5.97
2023-05-21T01:47:08.988Z,5.82
2023-05-21T01:49:37.126Z,5.55
2023-05-21T01:52:05.489Z,5.20
2023-05-21T01:54:33.402Z,5.28
2023-05-21T01:57:03.802Z,5.20
2023-05-21T01:59:31.884Z,5.55
2023-05-21T02:01:59.754Z,6.00
2023-05-21T02:04:27.595Z,5.85
2023-05-21T02:06:55.757Z,5.70
2023-05-21T02:09:23.659Z,5.85
2023-05-21T02:11:51.498Z,5.50
2023-05-21T02:14:20.561Z,5.22
2023-05-21T02:16:48.261Z,5.90
2023-05-21T02:19:18.310Z,5.13
2023-05-21T02:21:46.139Z,5.45
2023-05-21T02:24:15.092Z,5.03
2023-05-21T02:26:43.370Z,5.00
2023-05-21T02:29:11.217Z,5.40
2023-05-21T02:31:40.352Z,4.47
2023-05-21T02:34:08.797Z,5.10
2023-05-21T02:36:36.594Z,4.90
2023-05-21T02:39:04.995Z,5.30
2023-05-21T02:41:35.890Z,4.72
2023-05-21T02:44:03.759Z,4.85
2023-05-21T02:46:33.443Z,5.43
2023-05-21T02:49:02.675Z,5.10
2023-05-21T02:51:30.533Z,4.97
2023-05-21T02:53:58.396Z,5.07
2023-05-21T02:56:26.187Z,5.75
2023-05-21T02:58:54.558Z,4.75
2023-05-21T03:01:22.402Z,5.38
2023-05-21T03:03:50.310Z,4.75
2023-05-21T03:06:19.461Z,5.35
2023-05-21T03:08:49.343Z,4.53
2023-05-21T03:11:17.182Z,5.13
2023-05-21T03:13:45.377Z,4.88
2023-05-21T03:16:14.095Z,5.32
2023-05-21T03:18:43.412Z,5.28
2023-05-21T03:21:13.310Z,4.72
2023-05-21T03:23:43.463Z,5.75
2023-05-21T03:26:11.503Z,4.63
2023-05-21T03:28:39.229Z,4.97
2023-05-21T03:31:07.213Z,4.60
2023-05-21T03:33:34.957Z,5.45
2023-05-21T03:36:02.733Z,4.63
2023-05-21T03:38:30.690Z,4.70
2023-05-21T03:40:59.827Z,4.70
2023-05-21T03:43:27.593Z,5.82
2023-05-21T03:45:55.913Z,4.85
2023-05-21T03:48:23.874Z,4.82
2023-05-21T03:50:51.807Z,4.93
2023-05-21T03:53:23.335Z,5.10
2023-05-21T03:55:55.226Z,4.45
2023-05-21T03:58:24.955Z,4.63
2023-05-21T04:00:52.694Z,5.18
2023-05-21T04:03:20.648Z,5.00
2023-05-21T04:05:49.448Z,5.15
2023-05-21T04:08:17.240Z,5.80
2023-05-21T04:10:45.251Z,5.50
2023-05-21T04:13:13.341Z,5.38
2023-05-21T04:15:43.784Z,5.15
2023-05-21T04:18:13.562Z,4.85
2023-05-21T04:20:41.294Z,4.32
2023-05-21T04:23:09.348Z,4.40
2023-05-21T04:25:38.822Z,4.57
2023-05-21T04:28:07.234Z,4.22
2023-05-21T04:30:36.163Z,4.80
2023-05-21T04:33:05.295Z,5.30
2023-05-21T04:35:33.184Z,5.15
2023-05-21T04:38:03.986Z,4.15
2023-05-21T04:40:31.935Z,4.82
2023-05-21T04:43:00.856Z,5.30
2023-05-21T04:45:29.373Z,5.38
2023-05-21T04:48:00.405Z,4.50
2023-05-21T04:50:30.620Z,4.50
2023-05-21T04:52:59.209Z,4.40
2023-05-21T04:55:27.474Z,5.40
2023-05-21T04:57:55.367Z,4.90
2023-05-21T05:00:25.553Z,4.47
2023-05-21T05:02:53.288Z,4.68
2023-05-21T05:05:21.060Z,6.05
2023-05-21T05:07:50.223Z,4.47
2023-05-21T05:10:18.143Z,4.97
2023-05-21T05:12:45.985Z,4.57
2023-05-21T05:15:14.072Z,5.15
2023-05-21T05:17:41.907Z,4.95
2023-05-21T05:20:10.761Z,4.93
2023-05-21T05:22:38.721Z,5.38
2023-05-21T05:25:08.681Z,4.55
2023-05-21T05:27:38.369Z,5.13
2023-05-21T05:30:07.867Z,4.68
2023-05-21T05:32:35.588Z,5.07
2023-05-21T05:35:03.407Z,6.05
2023-05-21T05:37:31.102Z,5.70
2023-05-21T05:39:58.803Z,5.63
2023-05-21T05:42:27.900Z,5.35
2023-05-21T05:44:55.884Z,4.78
2023-05-21T05:47:23.914Z,5.63
2023-05-21T05:49:53.776Z,6.70
2023-05-21T05:52:21.894Z,5.88
2023-05-21T05:54:51.098Z,7.72
2023-05-21T05:57:18.828Z,7.20
2023-05-21T05:59:47.883Z,6.72
2023-05-21T06:02:16.301Z,6.55
2023-05-21T06:04:44.699Z,6.07
2023-05-21T06:07:12.370Z,6.32
2023-05-21T06:09:40.116Z,6.68
2023-05-21T06:12:09.609Z,6.35
2023-05-21T06:14:39.962Z,6.63
2023-05-21T06:17:09.075Z,7.60
2023-05-21T06:19:37.879Z,6.85
2023-05-21T06:22:06.360Z,8.07
2023-05-21T06:24:34.144Z,9.38
2023-05-21T06:27:02.114Z,7.60
2023-05-21T06:29:29.756Z,8.15
2023-05-21T06:31:57.622Z,8.65
2023-05-21T06:34:26.866Z,8.38
2023-05-21T06:36:54.690Z,8.98
2023-05-21T06:39:22.574Z,8.55
2023-05-21T06:41:50.274Z,8.77
2023-05-21T06:44:18.498Z,8.55
2023-05-21T06:46:46.416Z,8.63
2023-05-21T06:49:15.058Z,8.52
2023-05-21T06:51:47.364Z,7.95
2023-05-21T06:54:15.161Z,8.38
2023-05-21T06:56:43.204Z,7.65
2023-05-21T06:59:11.074Z,8.48
2023-05-21T07:01:42.504Z,9.35
2023-05-21T07:04:10.628Z,8.52
2023-05-21T07:06:38.706Z,8.73
2023-05-21T07:09:07.790Z,8.85
2023-05-21T07:11:35.560Z,8.07
2023-05-21T07:14:03.889Z,8.38
2023-05-21T07:16:31.618Z,8.60
2023-05-21T07:18:59.687Z,8.65
2023-05-21T07:21:27.496Z,9.40
2023-05-21T07:23:55.249Z,9.60
2023-05-21T07:26:26.284Z,9.18
2023-05-21T07:28:56.262Z,10.43
2023-05-21T07:31:25.289Z,10.25
2023-05-21T07:33:53.283Z,9.55
2023-05-21T07:36:21.013Z,11.45
2023-05-21T07:38:48.805Z,12.43
2023-05-21T07:41:18.460Z,11.80
2023-05-21T07:43:47.860Z,11.63
2023-05-21T07:46:15.926Z,12.30
2023-05-21T07:48:44.102Z,12.07
2023-05-21T07:51:12.642Z,10.60
2023-05-21T07:53:40.461Z,11.38
2023-05-21T07:56:08.362Z,11.23
2023-05-21T07:58:36.221Z,11.35
2023-05-21T08:01:06.175Z,10.60
2023-05-21T08:03:34.112Z,11.05
2023-05-21T08:06:02.103Z,11.85
2023-05-21T08:08:30.933Z,14.00
2023-05-21T08:10:58.942Z,11.05
2023-05-21T08:13:26.827Z,10.43
2023-05-21T08:15:54.942Z,11.65
2023-05-21T08:18:25.353Z,11.68
2023-05-21T08:20:53.327Z,11.70
2023-05-21T08:23:21.292Z,11.55
2023-05-21T08:25:49.000Z,12.60
2023-05-21T08:28:16.706Z,13.43
2023-05-21T08:30:44.559Z,13.50
2023-05-21T08:33:12.263Z,12.65
2023-05-21T08:35:41.358Z,12.57
2023-05-21T08:38:09.225Z,12.60
2023-05-21T08:40:37.109Z,11.95
2023-05-21T08:43:04.937Z,12.38
2023-05-21T08:45:37.721Z,11.23
2023-05-21T08:48:07.635Z,13.77
2023-05-21T08:50:36.498Z,13.18
2023-05-21T08:53:12.687Z,12.25
2023-05-21T08:55:54.114Z,12.15
2023-05-21T08:58:22.744Z,12.40
2023-05-21T09:00:50.668Z,13.60
2023-05-21T09:03:19.101Z,11.85
2023-05-21T09:05:47.054Z,12.90
2023-05-21T09:08:20.254Z,17.67
2023-05-21T09:10:50.812Z,14.43
2023-05-21T09:13:20.175Z,15.55
2023-05-21T09:15:48.997Z,13.00
2023-05-21T09:18:16.804Z,12.90
2023-05-21T09:20:45.935Z,13.50
2023-05-21T09:23:17.976Z,14.02
2023-05-21T09:25:48.747Z,13.13
2023-05-21T09:28:17.987Z,12.50
2023-05-21T09:30:48.815Z,15.10
2023-05-21T09:33:27.402Z,15.73
2023-05-21T09:35:55.187Z,14.45
2023-05-21T09:38:23.623Z,15.00
2023-05-21T09:40:55.945Z,16.92
2023-05-21T09:43:23.875Z,14.65
2023-05-21T09:45:53.382Z,17.35
2023-05-21T09:48:35.369Z,14.38
2023-05-21T09:51:14.887Z,13.98
2023-05-21T09:53:50.033Z,12.10
2023-05-21T09:56:23.287Z,13.18
2023-05-21T09:58:54.704Z,12.30
2023-05-21T10:01:22.695Z,15.02
2023-05-21T10:03:54.983Z,13.25
2023-05-21T10:06:25.476Z,13.18
2023-05-21T10:08:56.154Z,15.90
2023-05-21T10:11:27.413Z,16.15
2023-05-21T10:13:59.103Z,13.88
2023-05-21T10:16:27.261Z,13.90
2023-05-21T10:18:57.565Z,11.80
2023-05-21T10:21:26.170Z,12.57
2023-05-21T10:23:56.561Z,12.10
2023-05-21T10:26:26.524Z,13.40
2023-05-21T10:28:57.224Z,14.32
2023-05-21T10:31:26.780Z,12.70
2023-05-21T10:33:55.384Z,13.18
2023-05-21T10:36:25.730Z,14.13
2023-05-21T10:38:55.209Z,12.50
2023-05-21T10:41:26.952Z,11.35
2023-05-21T10:44:07.470Z,12.48
2023-05-21T10:46:58.761Z,12.25
2023-05-21T10:49:50.540Z,16.23
2023-05-21T10:52:36.483Z,12.50
2023-05-21T10:55:18.810Z,12.82
2023-05-21T10:58:11.945Z,13.02
2023-05-21T11:00:40.407Z,12.20
2023-05-21T11:03:09.207Z,13.25
2023-05-21T11:05:41.336Z,11.30
2023-05-21T11:08:23.244Z,11.95
2023-05-21T11:10:55.154Z,15.40
2023-05-21T11:13:24.638Z,13.30
2023-05-21T11:16:09.019Z,12.43
2023-05-21T11:19:02.639Z,13.30
2023-05-21T11:21:31.689Z,12.95
2023-05-21T11:24:06.416Z,13.10
2023-05-21T11:27:07.140Z,11.57
2023-05-21T11:29:44.569Z,12.77
2023-05-21T11:32:17.185Z,12.50
2023-05-21T11:34:49.104Z,10.52
2023-05-21T11:37:31.472Z,12.30
2023-05-21T11:40:15.632Z,11.38
2023-05-21T11:42:44.879Z,10.43
2023-05-21T11:45:19.097Z,14.05
2023-05-21T11:47:47.613Z,13.60
2023-05-21T11:50:16.932Z,11.57
2023-05-21T11:52:46.074Z,10.98
2023-05-21T11:55:15.564Z,11.00
2023-05-21T11:57:45.613Z,11.02
2023-05-21T12:00:17.212Z,11.35
2023-05-21T12:02:46.199Z,12.25
2023-05-21T12:05:14.046Z,11.95
2023-05-21T12:07:41.761Z,13.57
2023-05-21T12:10:10.254Z,13.02
2023-05-21T12:12:50.607Z,13.20
2023-05-21T12:15:25.109Z,11.48
2023-05-21T12:17:53.531Z,11.05
2023-05-21T12:20:21.791Z,11.00
2023-05-21T12:22:49.832Z,11.57
2023-05-21T12:25:19.939Z,11.98
2023-05-21T12:27:48.360Z,9.98
2023-05-21T12:30:16.380Z,11.32
2023-05-21T12:32:45.651Z,13.73
2023-05-21T12:35:22.752Z,11.57
2023-05-21T12:37:51.768Z,11.13
2023-05-21T12:40:20.879Z,10.30
2023-05-21T12:42:49.462Z,11.52
2023-05-21T12:45:18.673Z,10.32
2023-05-21T12:47:56.330Z,11.65
2023-05-21T12:50:24.708Z,11.05
2023-05-21T12:52:55.838Z,12.68
2023-05-21T12:55:25.009Z,12.02
2023-05-21T12:58:02.600Z,10.80
2023-05-21T13:00:30.584Z,12.38
2023-05-21T13:03:01.165Z,9.90
2023-05-21T13:05:29.116Z,11.02
2023-05-21T13:07:56.995Z,11.90
2023-05-21T13:10:25.164Z,12.07
2023-05-21T13:12:52.949Z,10.15
2023-05-21T13:15:21.303Z,13.07
2023-05-21T13:17:50.356Z,12.38
2023-05-21T13:20:21.950Z,12.25
2023-05-21T13:22:51.494Z,11.77
2023-05-21T13:25:21.436Z,10.68
2023-05-21T13:27:50.635Z,14.60
2023-05-21T13:30:19.454Z,11.55
2023-05-21T13:32:47.528Z,11.02
2023-05-21T13:35:16.761Z,12.90
2023-05-21T13:37:46.688Z,12.70
2023-05-21T13:40:16.280Z,10.65
2023-05-21T13:42:45.164Z,11.00
2023-05-21T13:45:15.098Z,12.35
2023-05-21T13:47:44.518Z,12.15
2023-05-21T13:50:13.263Z,9.73
2023-05-21T13:52:41.240Z,11.10
2023-05-21T13:55:11.680Z,9.75
2023-05-21T13:57:40.825Z,11.43
2023-05-21T14:00:12.477Z,12.35
2023-05-21T14:02:42.473Z,11.00
2023-05-21T14:05:11.802Z,12.88
2023-05-21T14:07:40.788Z,12.40
2023-05-21T14:10:11.352Z,13.70
2023-05-21T14:12:40.587Z,12.77
2023-05-21T14:15:11.384Z,13.02
2023-05-21T14:17:40.846Z,13.43
2023-05-21T14:20:10.050Z,11.93
2023-05-21T14:22:38.570Z,11.10
2023-05-21T14:25:09.217Z,10.25
2023-05-21T14:27:40.780Z,12.38
2023-05-21T14:30:12.116Z,12.13
2023-05-21T14:32:39.907Z,10.50
2023-05-21T14:35:08.153Z,12.07
2023-05-21T14:37:35.974Z,12.13
2023-05-21T14:40:05.438Z,11.13
2023-05-21T14:42:33.333Z,13.45
2023-05-21T14:45:17.429Z,12.43
2023-05-21T14:47:47.654Z,11.13
2023-05-21T14:50:16.962Z,11.77
2023-05-21T14:52:45.018Z,12.95
2023-05-21T14:55:13.884Z,11.95
2023-05-21T14:57:41.710Z,11.73
2023-05-21T15:00:12.522Z,12.52
2023-05-21T15:02:40.835Z,13.23
2023-05-21T15:05:10.034Z,13.40
2023-05-21T15:07:37.977Z,12.40
2023-05-21T15:10:06.556Z,11.18
2023-05-21T15:12:34.276Z,14.65
2023-05-21T15:15:02.056Z,13.07
2023-05-21T15:17:31.339Z,11.75
2023-05-21T15:20:01.420Z,12.77
2023-05-21T15:22:29.307Z,16.67
2023-05-21T15:24:57.104Z,12.75
2023-05-21T15:27:26.226Z,13.65
2023-05-21T15:29:54.145Z,13.32
2023-05-21T15:32:22.327Z,12.63
2023-05-21T15:34:51.876Z,12.88
2023-05-21T15:37:20.151Z,11.98
2023-05-21T15:39:49.491Z,12.32
2023-05-21T15:42:17.298Z,12.43
2023-05-21T15:44:45.212Z,12.13
2023-05-21T15:47:12.995Z,11.13
2023-05-21T15:49:41.102Z,12.73
2023-05-21T15:52:10.280Z,12.75
2023-05-21T15:54:38.161Z,12.13
2023-05-21T15:57:06.415Z,12.82
2023-05-21T15:59:34.126Z,12.43
2023-05-21T16:02:02.525Z,13.02
2023-05-21T16:04:32.997Z,12.15
2023-05-21T16:07:01.233Z,12.40
2023-05-21T16:09:30.523Z,11.90
2023-05-21T16:11:58.455Z,13.27
2023-05-21T16:14:26.368Z,12.27
2023-05-21T16:16:54.521Z,12.73
2023-05-21T16:19:22.613Z,12.25
2023-05-21T16:21:50.515Z,13.82
2023-05-21T16:24:18.332Z,12.73
2023-05-21T16:26:49.554Z,14.48
2023-05-21T16:29:17.954Z,12.68
2023-05-21T16:31:46.101Z,15.55
2023-05-21T16:34:14.826Z,14.27
2023-05-21T16:36:43.554Z,13.43
2023-05-21T16:39:12.444Z,15.00
2023-05-21T16:41:45.005Z,13.60
2023-05-21T16:44:15.634Z,13.65
2023-05-21T16:46:43.532Z,13.38
2023-05-21T16:49:11.977Z,13.75
2023-05-21T16:51:39.914Z,11.00
2023-05-21T16:54:08.403Z,13.50
2023-05-21T16:56:36.689Z,13.35
2023-05-21T16:59:06.222Z,13.65
2023-05-21T17:01:35.377Z,12.80
2023-05-21T17:04:03.859Z,13.05
2023-05-21T17:06:33.754Z,14.02
2023-05-21T17:09:03.964Z,11.80
2023-05-21T17:11:32.576Z,12.35
2023-05-21T17:14:00.849Z,12.68
2023-05-21T17:16:30.094Z,13.75
2023-05-21T17:18:59.755Z,13.05
2023-05-21T17:21:27.694Z,13.38
2023-05-21T17:23:55.578Z,12.45
2023-05-21T17:26:23.509Z,12.35
2023-05-21T17:28:52.874Z,12.98
2023-05-21T17:34:36.270Z,12.18
2023-05-21T17:37:06.019Z,12.25
2023-05-21T17:39:34.260Z,11.05
2023-05-21T17:42:02.690Z,11.48
2023-05-21T17:44:30.589Z,12.20
2023-05-21T17:46:58.517Z,11.77
2023-05-21T17:49:26.511Z,12.27
2023-05-21T17:51:56.598Z,11.48
2023-05-21T17:54:24.660Z,11.23
2023-05-21T17:56:52.665Z,10.05
2023-05-21T17:59:21.203Z,10.82
2023-05-21T18:01:50.429Z,10.68
2023-05-21T18:04:18.369Z,11.85
2023-05-21T18:06:46.305Z,11.07
2023-05-21T18:09:18.242Z,12.45
2023-05-21T18:11:46.324Z,12.35
2023-05-21T18:14:14.145Z,12.48
2023-05-21T18:16:42.389Z,10.30
2023-05-21T18:19:10.951Z,11.23
2023-05-21T18:21:39.077Z,12.57
2023-05-21T18:24:07.986Z,12.68
2023-05-21T18:26:36.981Z,12.02
2023-05-21T18:29:05.954Z,11.27
2023-05-21T18:31:34.008Z,10.88
2023-05-21T18:34:02.234Z,11.68
2023-05-21T18:36:30.121Z,10.27
2023-05-21T18:39:08.291Z,11.52
2023-05-21T18:41:37.925Z,11.15
2023-05-21T18:44:06.869Z,11.50
2023-05-21T18:46:34.918Z,11.40
2023-05-21T18:49:03.160Z,12.63
2023-05-21T18:51:31.643Z,11.25
2023-05-21T18:53:59.756Z,11.05
2023-05-21T18:56:29.167Z,12.32
2023-05-21T18:58:58.678Z,12.00
2023-05-21T19:01:27.239Z,11.93
2023-05-21T19:03:55.294Z,13.50
2023-05-21T19:06:25.365Z,12.18
2023-05-21T19:08:53.782Z,11.45
2023-05-21T19:11:23.555Z,10.00
2023-05-21T19:13:51.495Z,10.25
2023-05-21T19:16:21.230Z,11.55
2023-05-21T19:18:49.202Z,10.65
2023-05-21T19:21:17.145Z,10.70
2023-05-21T19:23:53.295Z,11.90
2023-05-21T19:26:22.961Z,11.20
2023-05-21T19:28:53.811Z,10.45
2023-05-21T19:31:25.184Z,9.70
2023-05-21T19:33:53.186Z,10.10
2023-05-21T19:36:21.688Z,10.32
2023-05-21T19:38:50.652Z,9.70
2023-05-21T19:41:19.204Z,9.57
2023-05-21T19:43:47.721Z,10.00
2023-05-21T19:46:19.035Z,9.93
2023-05-21T19:48:49.670Z,9.68
2023-05-21T19:51:17.718Z,9.05
2023-05-21T19:53:45.682Z,8.90
2023-05-21T19:56:13.477Z,9.43
2023-05-21T19:58:41.793Z,9.25
2023-05-21T20:01:09.723Z,8.48
2023-05-21T20:03:37.739Z,8.73
2023-05-21T20:06:07.210Z,8.98
2023-05-21T20:08:35.303Z,9.07
2023-05-21T20:11:03.814Z,8.70
2023-05-21T20:13:31.713Z,9.45
2023-05-21T20:15:59.740Z,9.15
2023-05-21T20:18:27.517Z,9.00
2023-05-21T20:20:56.756Z,9.57
2023-05-21T20:23:26.160Z,7.78
2023-05-21T20:25:53.883Z,8.80
2023-05-21T20:28:23.210Z,8.00
2023-05-21T20:30:57.391Z,9.20
2023-05-21T20:33:25.796Z,9.00
2023-05-21T20:35:53.992Z,8.82
2023-05-21T20:38:22.124Z,7.68
2023-05-21T20:40:51.483Z,8.95
2023-05-21T20:43:19.945Z,9.20
2023-05-21T20:45:49.344Z,8.80
2023-05-21T20:48:18.264Z,8.77
2023-05-21T20:50:46.488Z,8.38
2023-05-21T20:53:16.037Z,9.50
2023-05-21T20:55:44.581Z,8.57
2023-05-21T20:58:13.993Z,8.38
2023-05-21T21:00:43.963Z,8.70
2023-05-21T21:03:12.073Z,9.43
2023-05-21T21:05:40.547Z,8.70
2023-05-21T21:08:08.340Z,9.85
2023-05-21T21:10:37.011Z,9.32
2023-05-21T21:13:07.204Z,9.25
2023-05-21T21:15:37.175Z,9.52
2023-05-21T21:18:07.597Z,9.93
2023-05-21T21:20:35.473Z,8.88
2023-05-21T21:23:06.066Z,9.07
2023-05-21T21:25:34.206Z,8.85
2023-05-21T21:28:01.993Z,8.23
2023-05-21T21:30:29.739Z,8.35
2023-05-21T21:32:58.953Z,9.65
2023-05-21T21:35:26.766Z,8.80
2023-05-21T21:37:54.619Z,8.77
2023-05-21T21:40:22.356Z,8.10
2023-05-21T21:42:50.165Z,8.73
2023-05-21T21:45:17.954Z,9.05
2023-05-21T21:47:45.793Z,7.85
2023-05-21T21:50:14.949Z,8.40
2023-05-21T21:52:45.284Z,10.55
2023-05-21T21:55:13.424Z,7.20
2023-05-21T21:57:41.289Z,7.70
2023-05-21T22:00:15.863Z,8.70
2023-05-21T22:02:44.143Z,8.30
2023-05-21T22:05:14.564Z,8.40
2023-05-21T22:07:46.305Z,8.43
2023-05-21T22:10:18.042Z,8.40
2023-05-21T22:12:46.133Z,7.53
2023-05-21T22:15:19.914Z,8.43
2023-05-21T22:17:48.505Z,8.90
2023-05-21T22:20:17.521Z,8.23
2023-05-21T22:22:47.101Z,9.07
2023-05-21T22:25:15.093Z,8.65
2023-05-21T22:27:43.177Z,8.23
2023-05-21T22:30:12.930Z,8.73
2023-05-21T22:32:40.831Z,8.27
2023-05-21T22:35:09.615Z,7.60
2023-05-21T22:37:38.200Z,9.18
2023-05-21T22:40:09.169Z,7.45
2023-05-21T22:42:37.269Z,8.65
2023-05-21T22:45:06.626Z,8.38
2023-05-21T22:47:37.109Z,8.02
2023-05-21T22:50:05.357Z,8.95
2023-05-21T22:52:34.343Z,8.63
2023-05-21T22:55:02.469Z,8.43
2023-05-21T22:57:31.521Z,8.43
2023-05-21T22:59:59.210Z,7.45
2023-05-21T23:02:27.044Z,8.23
2023-05-21T23:04:54.970Z,7.78
2023-05-21T23:07:22.706Z,7.85
2023-05-21T23:09:51.726Z,7.60
2023-05-21T23:12:21.735Z,9.50
2023-05-21T23:14:50.915Z,7.75
2023-05-21T23:17:18.640Z,8.52
2023-05-21T23:19:46.366Z,8.98
2023-05-21T23:22:14.065Z,10.00
2023-05-21T23:24:42.011Z,8.30
2023-05-21T23:27:09.733Z,9.35
2023-05-21T23:29:37.519Z,9.23
2023-05-21T23:32:07.431Z,8.25
2023-05-21T23:34:35.401Z,9.25
2023-05-21T23:37:03.173Z,8.40
2023-05-21T23:39:30.949Z,7.78
2023-05-21T23:41:58.937Z,8.30
2023-05-21T23:44:26.767Z,8.20
2023-05-21T23:46:54.551Z,8.73
2023-05-21T23:49:23.602Z,8.98
2023-05-21T23:51:51.365Z,9.00
2023-05-21T23:54:19.170Z,8.07
2023-05-21T23:56:49.253Z,9.35
2023-05-21T23:59:18.502Z,8.75
